Portada
METAR-TAF:

METAR-TAF

Aeroports :

Koror, Babeldaob, Palau

latitud: 07-22N, longitud: 134-32E, altitud: 54 m

Observació

L'informe es va fer fa 27 minuts, a les 10:51 UTC
Vent calma
Temperatura 28°C
Humitat 79%
Pressió 1012 hPa
Visibilitat: 24.1 km
Núvols disperses a una alçada de 1600 ft
Cel ennuvolat a una alçada de 12000 ft
Cel ennuvolat a una alçada de 30000 ft

METAR: PTRO 181051Z 00000KT 15SM SCT016 BKN120 BKN300 28/24 A2989

Hora: 20:18 (11:18 UTC)

Pronòstic

L'informe es va fer fa 5 hores i 58 minuts, a les 05:20 UTC
Pronòstic vàlid del 18 a les 06 UTC al 19 a les 06 UTC
Vent 8 kt del Sud/Sud-Oest
Visibilitat: 10 km
Núvols disperses a una alçada de 1800 ft
Núvols disperses a una alçada de 14000 ft
xàfecs en les proximitats

TAF: PTRO 180520Z 1806/1906 21008KT P6SM VCSH SCT018 SCT140

Observacions i pronòstics meteorològics de més de 4000 aeroports (METAR i TAF).

Les estacions disponibles són els punts grocs i vermells al mapa.

Posi el ratolí al punt desitjat per veure el nom de l'estació.

Feu clic per veure les observacions i els pronòstics meteorològics.

Per canviar el mapa: feu clic els botons verds amb una creu de color negre per apropar; al botó verd amb un guió per allunyar la imatge; o en les fletxes verdes per a mapes adjacents.


METAR-TAF: